Portada
METAR-TAF:

METAR-TAF

Aeroports :

Batam, Indonèsia

latitud: 01-07-15N, longitud: 104-07-07E, altitud: 38 m

Observació

L'informe es va fer fa 48 minuts, a les 10:30 UTC
Vent 8 kt del Sud-Est
Temperatura 29°C
Humitat 70%
Pressió 1011 hPa
Visibilitat: 2000 m
Escasses núvols a una alçada de 1400 ft
fum

METAR: WIDD 181030Z 14008KT 2000 FU FEW014 29/23 Q1011

Hora: 18:18 (11:18 UTC)

Pronòstic

L'informe es va fer fa 6 hores i 18 minuts, a les 05:00 UTC
Pronòstic vàlid del 18 a les 06 UTC al 19 a les 06 UTC
Vent 10 kt del Sud/Sud-Est
Visibilitat: 4000 m
Núvols disperses a una alçada de 1400 ft
fum

TAF: WIDD 180500Z 1806/1906 15010KT 4000 FU SCT014

Observacions i pronòstics meteorològics de més de 4000 aeroports (METAR i TAF).

Les estacions disponibles són els punts grocs i vermells al mapa.

Posi el ratolí al punt desitjat per veure el nom de l'estació.

Feu clic per veure les observacions i els pronòstics meteorològics.

Per canviar el mapa: feu clic els botons verds amb una creu de color negre per apropar; al botó verd amb un guió per allunyar la imatge; o en les fletxes verdes per a mapes adjacents.


METAR-TAF: